createdAt,value
2023-07-04T01:26:29.093Z,9.00
2023-07-04T01:29:49.079Z,7.93
2023-07-04T01:31:09.861Z,8.60
2023-07-04T01:32:13.113Z,8.23
2023-07-04T01:34:08.267Z,7.87
2023-07-04T01:35:01.351Z,8.50
2023-07-04T01:37:06.379Z,7.93
2023-07-04T01:38:13.573Z,8.37
2023-07-04T01:46:24.513Z,7.67
2023-07-04T01:49:07.463Z,7.23
2023-07-04T01:52:53.834Z,8.43
2023-07-04T01:56:57.283Z,8.53
2023-07-04T01:57:57.970Z,8.20
2023-07-04T01:59:24.326Z,8.00
2023-07-04T02:00:41.364Z,8.00
2023-07-04T02:05:27.814Z,8.27
2023-07-04T02:07:40.431Z,8.43
2023-07-04T02:08:28.318Z,7.87
2023-07-04T02:09:18.536Z,7.73
2023-07-04T02:10:26.093Z,7.87
2023-07-04T02:12:01.344Z,7.80
2023-07-04T02:14:04.223Z,8.67
2023-07-04T02:15:01.553Z,8.20
2023-07-04T02:15:43.608Z,8.00
2023-07-04T02:16:38.621Z,7.70
2023-07-04T02:17:19.726Z,7.37
2023-07-04T02:18:27.787Z,7.23
2023-07-04T02:19:33.869Z,7.53
2023-07-04T02:20:50.990Z,7.90
2023-07-04T02:21:38.582Z,7.60
2023-07-04T02:22:14.484Z,7.97
2023-07-04T02:22:52.903Z,7.80
2023-07-04T02:23:38.910Z,7.93
2023-07-04T02:25:02.754Z,7.63
2023-07-04T02:25:47.794Z,8.13
2023-07-04T02:26:35.019Z,7.83
2023-07-04T02:27:20.499Z,8.17
2023-07-04T02:28:28.376Z,8.60
2023-07-04T02:31:04.414Z,6.93
2023-07-04T02:32:17.085Z,8.07
2023-07-04T02:33:41.997Z,7.13
2023-07-04T02:35:37.997Z,7.50
2023-07-04T02:36:34.718Z,7.27
2023-07-04T02:37:23.887Z,7.07
2023-07-04T02:40:08.412Z,8.63
2023-07-04T02:42:16.892Z,7.53
2023-07-04T02:43:44.966Z,7.03
2023-07-04T02:44:23.882Z,6.53
2023-07-04T02:45:02.317Z,6.90
2023-07-04T02:45:38.703Z,7.97
2023-07-04T02:46:53.876Z,8.30
2023-07-04T02:48:42.257Z,7.33
2023-07-04T02:49:43.767Z,8.00
2023-07-04T02:50:22.001Z,8.10
2023-07-04T02:51:43.069Z,7.90
2023-07-04T02:52:29.545Z,7.90
2023-07-04T02:55:18.004Z,7.30
2023-07-04T02:56:32.940Z,7.73
2023-07-04T02:57:51.480Z,7.47
2023-07-04T02:58:48.989Z,7.30
2023-07-04T02:59:49.444Z,7.73
2023-07-04T03:00:35.734Z,7.17
2023-07-04T03:01:19.683Z,7.03
2023-07-04T03:02:51.080Z,7.57
2023-07-04T03:05:40.324Z,7.10
2023-07-04T03:06:19.626Z,7.40
2023-07-04T03:07:59.814Z,6.97
2023-07-04T03:08:42.873Z,6.77
2023-07-04T03:09:37.222Z,6.63
2023-07-04T03:10:26.116Z,7.00
2023-07-04T03:11:21.414Z,7.17
2023-07-04T03:12:12.423Z,7.27
2023-07-04T03:13:00.705Z,6.07
2023-07-04T03:13:41.715Z,6.40
2023-07-04T03:14:18.850Z,6.97
2023-07-04T03:16:23.976Z,6.23
2023-07-04T03:16:59.386Z,7.47
2023-07-04T03:19:29.995Z,7.93
2023-07-04T03:21:28.569Z,7.70
2023-07-04T03:22:11.339Z,7.03
2023-07-04T03:22:52.214Z,6.90
2023-07-04T03:23:26.875Z,7.30
2023-07-04T03:24:05.970Z,7.50
2023-07-04T03:24:41.491Z,7.00
2023-07-04T03:25:28.620Z,6.50
2023-07-04T03:26:28.010Z,6.70
2023-07-04T03:27:30.793Z,7.17
2023-07-04T03:28:21.623Z,6.33
2023-07-04T03:30:32.854Z,7.17
2023-07-04T03:32:50.140Z,6.50
2023-07-04T03:35:19.496Z,5.13
2023-07-04T03:36:02.009Z,5.50
2023-07-04T03:37:19.403Z,5.10
2023-07-04T03:37:57.578Z,4.87
2023-07-04T03:38:48.133Z,5.13
2023-07-04T03:40:03.874Z,5.13
2023-07-04T03:40:43.572Z,4.03
2023-07-04T03:41:49.941Z,3.17
2023-07-04T03:43:54.279Z,3.80
2023-07-04T03:45:16.695Z,4.07
2023-07-04T03:46:20.426Z,4.30
2023-07-04T03:47:04.276Z,3.60
2023-07-04T03:49:21.813Z,3.70
2023-07-04T03:50:15.667Z,3.20
2023-07-04T03:51:35.451Z,3.57
2023-07-04T03:52:08.199Z,3.30
2023-07-04T03:54:18.764Z,3.17
2023-07-04T03:56:59.552Z,3.47
2023-07-04T03:58:34.310Z,3.53
2023-07-04T03:59:54.932Z,3.87
2023-07-04T04:01:26.538Z,3.83
2023-07-04T04:04:24.178Z,3.13
2023-07-04T04:05:36.373Z,3.13
2023-07-04T04:06:29.991Z,3.00
2023-07-04T04:07:21.207Z,2.60
2023-07-04T04:09:30.938Z,2.90
2023-07-04T04:10:12.362Z,2.90
2023-07-04T04:11:06.789Z,2.87
2023-07-04T04:11:45.445Z,2.90
2023-07-04T04:14:14.644Z,2.63
2023-07-04T04:15:07.137Z,2.97
2023-07-04T04:15:57.331Z,2.90
2023-07-04T04:16:33.852Z,2.87
2023-07-04T04:18:42.570Z,2.13
2023-07-04T04:20:54.383Z,2.70
2023-07-04T04:21:41.524Z,2.93
2023-07-04T04:22:39.508Z,2.23
2023-07-04T04:23:54.204Z,2.43
2023-07-04T04:24:43.943Z,2.57
2023-07-04T04:25:25.177Z,2.60
2023-07-04T04:25:59.182Z,2.53
2023-07-04T04:26:44.832Z,2.77
2023-07-04T04:28:10.079Z,2.70
2023-07-04T04:29:35.000Z,2.73
2023-07-04T04:30:43.428Z,2.60
2023-07-04T04:31:42.075Z,2.67
2023-07-04T04:33:41.319Z,2.70
2023-07-04T04:35:09.961Z,3.23
2023-07-04T04:37:00.779Z,2.97
2023-07-04T04:38:38.096Z,3.13
2023-07-04T04:39:50.304Z,3.03
2023-07-04T04:40:32.700Z,2.63
2023-07-04T04:43:00.063Z,3.00
2023-07-04T04:46:13.993Z,2.80
2023-07-04T04:47:57.694Z,3.03
2023-07-04T04:49:27.605Z,2.53
2023-07-04T04:52:03.603Z,2.40
2023-07-04T04:54:40.426Z,2.70
2023-07-04T04:56:01.451Z,3.40
2023-07-04T04:57:24.806Z,2.97
2023-07-04T04:58:33.452Z,2.80
2023-07-04T04:59:57.979Z,2.63
2023-07-04T05:01:43.132Z,2.70
2023-07-04T05:02:40.699Z,2.43
2023-07-04T05:04:31.167Z,3.70
2023-07-04T05:05:19.507Z,3.33
2023-07-04T05:06:27.846Z,3.47
2023-07-04T05:07:10.930Z,3.47
2023-07-04T05:07:55.304Z,3.27
2023-07-04T05:08:42.158Z,3.23
2023-07-04T05:11:26.192Z,3.43
2023-07-04T05:12:11.236Z,3.77
2023-07-04T05:13:08.931Z,3.97
2023-07-04T05:14:25.342Z,3.57
2023-07-04T05:15:01.625Z,3.43
2023-07-04T05:15:50.094Z,3.27
2023-07-04T05:16:29.455Z,2.93
2023-07-04T05:17:37.414Z,2.90
2023-07-04T05:18:16.041Z,3.20
2023-07-04T05:18:55.014Z,3.00
2023-07-04T05:19:41.460Z,3.10
2023-07-04T05:20:49.174Z,2.73
2023-07-04T05:21:31.495Z,2.87
2023-07-04T05:22:09.761Z,2.37
2023-07-04T05:22:46.662Z,2.57
2023-07-04T05:23:34.305Z,2.83
2023-07-04T05:24:12.593Z,2.43
2023-07-04T05:25:02.612Z,2.53
2023-07-04T05:25:34.700Z,2.63
2023-07-04T05:26:48.175Z,2.20
2023-07-04T05:27:27.208Z,1.90
2023-07-04T05:28:06.697Z,2.33
2023-07-04T05:28:41.297Z,2.93
2023-07-04T05:29:19.715Z,3.37
2023-07-04T05:30:04.070Z,3.50
2023-07-04T05:30:46.071Z,3.87
2023-07-04T05:31:23.770Z,3.40
2023-07-04T05:32:04.840Z,2.73
2023-07-04T05:32:43.149Z,2.77
2023-07-04T05:33:17.039Z,2.83
2023-07-04T05:34:02.138Z,3.10
2023-07-04T05:34:58.969Z,3.03
2023-07-04T05:35:34.536Z,2.47
2023-07-04T05:36:25.853Z,3.07
2023-07-04T05:37:41.835Z,3.20
2023-07-04T05:38:20.071Z,3.03
2023-07-04T05:39:08.285Z,3.50
2023-07-04T05:39:46.628Z,3.07
2023-07-04T05:40:25.455Z,2.73
2023-07-04T05:40:58.687Z,2.83
2023-07-04T05:41:36.467Z,2.80
2023-07-04T05:42:11.800Z,2.67
2023-07-04T05:42:47.556Z,2.37
2023-07-04T05:43:22.614Z,2.93
2023-07-04T05:43:59.069Z,2.90
2023-07-04T05:44:37.552Z,3.03
2023-07-04T05:45:18.486Z,2.57
2023-07-04T05:45:52.183Z,2.70
2023-07-04T05:46:59.175Z,2.23
2023-07-04T05:47:37.427Z,2.80
2023-07-04T05:48:18.724Z,2.33
2023-07-04T05:48:59.064Z,2.53
2023-07-04T05:49:31.813Z,2.87
2023-07-04T05:50:13.719Z,2.50
2023-07-04T05:51:06.435Z,2.43
2023-07-04T05:51:44.629Z,2.60
2023-07-04T05:52:19.706Z,2.97
2023-07-04T05:53:31.746Z,2.77
2023-07-04T05:54:49.601Z,2.63
2023-07-04T05:55:21.674Z,2.63
2023-07-04T05:55:55.058Z,2.73
2023-07-04T05:56:31.701Z,2.70
2023-07-04T05:57:05.920Z,2.77
2023-07-04T05:57:38.005Z,2.83
2023-07-04T05:59:02.907Z,2.47
2023-07-04T05:59:38.693Z,3.03
2023-07-04T06:00:13.364Z,3.20
2023-07-04T06:00:46.516Z,3.20
2023-07-04T06:01:52.287Z,3.27
2023-07-04T06:02:25.526Z,2.73
2023-07-04T06:03:32.910Z,2.93
2023-07-04T06:04:10.766Z,2.80
2023-07-04T06:05:21.633Z,2.77
2023-07-04T06:05:53.901Z,2.30
2023-07-04T06:06:59.465Z,2.73
2023-07-04T06:07:34.985Z,2.97
2023-07-04T06:08:09.249Z,2.60
2023-07-04T06:08:49.790Z,2.17
2023-07-04T06:09:26.459Z,2.20
2023-07-04T06:10:32.136Z,2.20
2023-07-04T06:11:15.354Z,2.33
2023-07-04T06:11:48.988Z,2.37
2023-07-04T06:12:21.042Z,2.30
2023-07-04T06:12:53.093Z,2.50
2023-07-04T06:13:58.878Z,2.30
2023-07-04T06:14:34.644Z,2.63
2023-07-04T06:15:11.089Z,2.47
2023-07-04T06:15:45.886Z,2.57
2023-07-04T06:16:17.981Z,2.87
2023-07-04T06:16:54.253Z,2.37
2023-07-04T06:17:26.998Z,2.70
2023-07-04T06:18:33.231Z,2.33
2023-07-04T06:19:05.422Z,2.30
2023-07-04T06:19:37.601Z,2.37
2023-07-04T06:20:42.837Z,2.57
2023-07-04T06:22:33.613Z,2.33
2023-07-04T06:23:05.767Z,2.10
2023-07-04T06:23:41.117Z,2.20
2023-07-04T06:24:50.280Z,2.40
2023-07-04T06:25:34.778Z,2.03
2023-07-04T06:26:08.176Z,2.67
2023-07-04T06:26:41.879Z,2.40
2023-07-04T06:27:17.790Z,2.47
2023-07-04T06:27:49.933Z,2.20
2023-07-04T06:28:25.016Z,2.40
2023-07-04T06:28:58.351Z,2.27
2023-07-04T06:29:31.961Z,2.43
2023-07-04T06:30:05.271Z,2.53
2023-07-04T06:30:39.660Z,1.97
2023-07-04T06:31:50.830Z,2.17
2023-07-04T06:32:24.078Z,2.27
2023-07-04T06:33:02.044Z,2.17
2023-07-04T06:33:42.088Z,2.20
2023-07-04T06:34:15.449Z,1.77
2023-07-04T06:34:47.780Z,2.13
2023-07-04T06:35:56.052Z,2.07
2023-07-04T06:36:30.537Z,1.90
2023-07-04T06:37:03.321Z,1.97
2023-07-04T06:38:12.977Z,2.00
2023-07-04T06:39:22.099Z,2.30
2023-07-04T06:40:28.466Z,1.87
2023-07-04T06:41:09.801Z,1.80
2023-07-04T06:41:44.916Z,1.80
2023-07-04T06:42:18.399Z,2.17
2023-07-04T06:42:50.711Z,2.13
2023-07-04T06:43:29.135Z,1.77
2023-07-04T06:44:01.218Z,1.87
2023-07-04T06:44:37.775Z,2.17
2023-07-04T06:45:11.474Z,1.97
2023-07-04T06:45:46.707Z,1.90
2023-07-04T06:46:23.398Z,1.60
2023-07-04T06:46:58.495Z,1.80
2023-07-04T06:47:32.651Z,1.73
2023-07-04T06:48:07.173Z,2.30
2023-07-04T06:48:39.425Z,1.87
2023-07-04T06:49:11.472Z,1.60
2023-07-04T06:50:26.496Z,1.93
2023-07-04T06:51:09.620Z,1.73
2023-07-04T06:51:45.065Z,1.80
2023-07-04T06:52:23.282Z,1.73
2023-07-04T06:52:56.297Z,2.07
2023-07-04T06:53:34.435Z,2.00
2023-07-04T06:54:13.079Z,1.80
2023-07-04T06:55:00.297Z,1.63
2023-07-04T06:55:35.839Z,1.80
2023-07-04T06:56:10.674Z,1.60
2023-07-04T06:56:45.769Z,1.57
2023-07-04T06:57:18.355Z,1.13
2023-07-04T06:58:23.844Z,1.63
2023-07-04T06:59:46.898Z,1.57
2023-07-04T07:00:20.938Z,1.67
2023-07-04T07:01:02.034Z,1.57
2023-07-04T07:01:35.458Z,1.40
2023-07-04T07:02:12.388Z,1.60
2023-07-04T07:02:48.564Z,1.30
2023-07-04T07:03:23.830Z,1.43
2023-07-04T07:04:01.013Z,1.67
2023-07-04T07:05:08.031Z,1.37
2023-07-04T07:05:44.233Z,1.20
2023-07-04T07:06:18.020Z,1.43
2023-07-04T07:06:56.287Z,1.43
2023-07-04T07:08:03.857Z,1.07
2023-07-04T07:08:36.784Z,1.40
2023-07-04T07:09:09.676Z,1.13
2023-07-04T07:09:44.878Z,1.30
2023-07-04T07:10:16.864Z,1.33
2023-07-04T07:11:12.098Z,1.30
2023-07-04T07:11:44.866Z,1.13
2023-07-04T07:12:18.787Z,1.00
2023-07-04T07:13:25.258Z,1.13
2023-07-04T07:13:57.391Z,1.17
2023-07-04T07:14:39.664Z,1.23
2023-07-04T07:15:22.855Z,1.27
2023-07-04T07:16:17.893Z,0.97
2023-07-04T07:16:49.997Z,0.80
2023-07-04T07:17:55.765Z,0.90
2023-07-04T07:18:28.254Z,1.00
2023-07-04T07:19:00.999Z,1.23
2023-07-04T07:19:37.355Z,1.17
2023-07-04T07:20:15.190Z,1.03
2023-07-04T07:20:48.259Z,1.07
2023-07-04T07:21:29.278Z,1.17
2023-07-04T07:22:05.011Z,0.77
2023-07-04T07:23:16.739Z,1.10
2023-07-04T07:24:27.109Z,0.97
2023-07-04T07:25:45.009Z,1.23
2023-07-04T07:26:22.827Z,0.97
2023-07-04T07:26:56.707Z,0.90
2023-07-04T07:27:32.293Z,0.87
2023-07-04T07:28:40.753Z,1.03
2023-07-04T07:29:13.703Z,1.33
2023-07-04T07:29:49.667Z,1.13
2023-07-04T07:30:21.775Z,0.93
2023-07-04T07:31:14.544Z,0.90
2023-07-04T07:31:54.460Z,0.97
2023-07-04T07:33:00.540Z,0.90
2023-07-04T07:33:36.951Z,1.20
2023-07-04T07:34:09.562Z,1.10
2023-07-04T07:34:41.691Z,1.20
2023-07-04T07:35:52.732Z,0.93
2023-07-04T07:36:42.032Z,1.17
2023-07-04T07:37:17.748Z,1.20
2023-07-04T07:38:23.663Z,0.77
2023-07-04T07:38:57.910Z,0.93
2023-07-04T07:39:36.426Z,1.03
2023-07-04T07:40:09.162Z,0.83
2023-07-04T07:40:41.315Z,0.80
2023-07-04T07:41:51.495Z,0.83
2023-07-04T07:42:23.516Z,0.87
2023-07-04T07:42:55.513Z,0.87
2023-07-04T07:43:27.704Z,1.13
2023-07-04T07:43:59.962Z,1.00
2023-07-04T07:44:31.990Z,0.90
2023-07-04T07:45:41.423Z,0.77
2023-07-04T07:46:17.475Z,0.67
2023-07-04T07:46:52.455Z,0.90
2023-07-04T07:47:57.652Z,1.07
2023-07-04T07:48:31.457Z,0.87
2023-07-04T07:49:07.240Z,1.03
2023-07-04T07:49:39.341Z,0.87
2023-07-04T07:50:13.837Z,0.83
2023-07-04T07:51:23.212Z,0.77
2023-07-04T07:51:56.492Z,0.73
2023-07-04T07:52:28.486Z,0.73
2023-07-04T07:53:33.593Z,0.97
2023-07-04T07:54:12.333Z,0.83
2023-07-04T07:54:44.370Z,0.80
2023-07-04T07:55:16.406Z,0.77
2023-07-04T07:56:23.174Z,0.90
2023-07-04T07:57:01.141Z,1.20
2023-07-04T07:57:33.269Z,0.93
2023-07-04T07:58:05.180Z,0.80
2023-07-04T07:58:38.114Z,0.87
2023-07-04T07:59:10.702Z,0.83
2023-07-04T07:59:42.663Z,0.80
2023-07-04T08:00:17.197Z,1.00
2023-07-04T08:00:49.147Z,1.07
2023-07-04T08:01:23.955Z,1.13
2023-07-04T08:01:57.172Z,1.00
2023-07-04T08:02:29.187Z,0.97
2023-07-04T08:03:35.110Z,0.97
2023-07-04T08:04:07.709Z,0.87
2023-07-04T08:04:39.940Z,0.87
2023-07-04T08:05:16.115Z,0.80
2023-07-04T08:06:31.608Z,0.97
2023-07-04T08:07:04.999Z,1.10
2023-07-04T08:07:40.467Z,0.90
2023-07-04T08:08:48.816Z,1.07
2023-07-04T08:09:57.820Z,0.97
2023-07-04T08:11:14.050Z,1.20
2023-07-04T08:11:53.007Z,0.93
2023-07-04T08:12:29.442Z,0.93
2023-07-04T08:13:03.682Z,1.03
2023-07-04T08:13:37.604Z,0.70
2023-07-04T08:14:22.803Z,0.83
2023-07-04T08:14:57.345Z,1.20
2023-07-04T08:15:38.005Z,0.97
2023-07-04T08:16:22.097Z,0.93
2023-07-04T08:17:01.496Z,0.93
2023-07-04T08:17:40.120Z,1.17
2023-07-04T08:18:15.911Z,0.97
2023-07-04T08:18:51.522Z,1.13
2023-07-04T08:19:29.100Z,1.23
2023-07-04T08:20:08.752Z,0.87
2023-07-04T08:20:44.582Z,0.70
2023-07-04T08:21:18.974Z,0.77
2023-07-04T08:21:54.780Z,1.10
2023-07-04T08:22:36.552Z,0.93
2023-07-04T08:23:10.003Z,0.97
2023-07-04T08:23:43.559Z,0.83
2023-07-04T08:24:19.492Z,0.67
2023-07-04T08:24:55.479Z,0.90
2023-07-04T08:25:29.065Z,1.07
2023-07-04T08:26:08.334Z,1.13
2023-07-04T08:26:46.032Z,0.90
2023-07-04T08:27:55.302Z,0.97
2023-07-04T08:28:39.165Z,0.90
2023-07-04T08:29:13.913Z,0.80
2023-07-04T08:29:52.746Z,0.87
2023-07-04T08:30:27.800Z,1.07
2023-07-04T08:31:16.881Z,0.60
2023-07-04T08:31:50.607Z,0.83
2023-07-04T08:33:01.724Z,0.87
2023-07-04T08:33:36.407Z,0.90
2023-07-04T08:34:44.930Z,1.00
2023-07-04T08:35:22.329Z,1.07
2023-07-04T08:36:04.821Z,0.70
2023-07-04T08:36:46.715Z,0.87
2023-07-04T08:37:22.635Z,0.80
2023-07-04T08:37:59.528Z,1.03
2023-07-04T08:38:48.790Z,0.90
2023-07-04T08:39:27.121Z,0.80
2023-07-04T08:40:03.011Z,1.03
2023-07-04T08:40:53.528Z,0.93
2023-07-04T08:41:28.985Z,1.07
2023-07-04T08:42:16.731Z,0.93
2023-07-04T08:42:55.994Z,0.90
2023-07-04T08:43:43.461Z,1.03
2023-07-04T08:44:23.085Z,0.97
2023-07-04T08:45:01.329Z,1.03
2023-07-04T08:45:39.664Z,1.03
2023-07-04T08:46:24.138Z,1.33
2023-07-04T08:47:09.447Z,1.13
2023-07-04T08:47:52.493Z,1.30
2023-07-04T08:48:35.901Z,1.23
2023-07-04T08:49:41.286Z,1.43
2023-07-04T08:50:55.964Z,1.13
2023-07-04T08:51:47.309Z,1.47
2023-07-04T08:52:46.112Z,2.13
2023-07-04T08:53:24.868Z,2.10
2023-07-04T08:54:05.048Z,1.87
2023-07-04T08:54:40.860Z,1.60
2023-07-04T08:55:20.487Z,1.77
2023-07-04T08:56:09.592Z,1.80
2023-07-04T08:56:50.370Z,1.93
2023-07-04T08:57:24.485Z,1.97
2023-07-04T08:58:01.831Z,1.87
2023-07-04T08:59:10.120Z,2.30
2023-07-04T08:59:44.272Z,1.97
2023-07-04T09:01:04.653Z,1.97
2023-07-04T09:01:38.437Z,1.83
2023-07-04T09:02:50.181Z,1.63
2023-07-04T09:03:37.612Z,2.00
2023-07-04T09:04:48.501Z,1.53
2023-07-04T09:05:49.177Z,1.80
2023-07-04T09:06:22.973Z,1.50
2023-07-04T09:07:10.491Z,1.80
2023-07-04T09:07:54.128Z,1.73
2023-07-04T09:08:47.665Z,1.70
2023-07-04T09:09:33.263Z,2.20
2023-07-04T09:10:23.360Z,1.97
2023-07-04T09:11:03.893Z,2.13
2023-07-04T09:11:38.513Z,2.23
2023-07-04T09:12:13.797Z,2.10
2023-07-04T09:12:47.977Z,1.93
2023-07-04T09:13:36.247Z,2.03
2023-07-04T09:15:18.157Z,2.03
2023-07-04T09:15:52.943Z,2.03
2023-07-04T09:16:41.656Z,2.00
2023-07-04T09:18:23.486Z,2.40
2023-07-04T09:19:01.955Z,2.67
2023-07-04T09:19:39.048Z,2.33
2023-07-04T09:20:11.608Z,1.73
2023-07-04T09:20:56.867Z,1.80
2023-07-04T09:21:31.598Z,1.80
2023-07-04T09:22:37.423Z,2.20
2023-07-04T09:23:23.482Z,2.13
2023-07-04T09:23:55.424Z,1.93
2023-07-04T09:24:29.712Z,1.67
2023-07-04T09:25:04.353Z,2.00
2023-07-04T09:25:36.364Z,1.63
2023-07-04T09:26:56.229Z,2.13
2023-07-04T09:27:30.481Z,2.17
2023-07-04T09:28:02.744Z,2.03
2023-07-04T09:28:40.573Z,2.07
2023-07-04T09:29:17.158Z,2.13
2023-07-04T09:29:49.848Z,2.00
2023-07-04T09:30:21.820Z,2.03
2023-07-04T09:30:58.241Z,2.03
2023-07-04T09:31:35.646Z,2.20
2023-07-04T09:32:09.018Z,1.77
2023-07-04T09:32:41.564Z,2.37
2023-07-04T09:33:15.788Z,2.10
2023-07-04T09:33:54.460Z,2.20
2023-07-04T09:34:40.421Z,2.30
2023-07-04T09:35:16.110Z,2.10
2023-07-04T09:35:49.536Z,2.53
2023-07-04T09:36:29.436Z,2.33
2023-07-04T09:37:56.338Z,2.10
2023-07-04T09:38:29.998Z,2.43
2023-07-04T09:40:00.741Z,2.20
2023-07-04T09:40:54.454Z,1.60
2023-07-04T09:42:47.190Z,1.73
2023-07-04T09:43:31.706Z,2.13
2023-07-04T09:44:16.357Z,2.13
2023-07-04T09:44:50.231Z,2.00
2023-07-04T09:45:24.682Z,1.93
2023-07-04T09:46:35.013Z,1.50
2023-07-04T09:47:52.291Z,1.67
2023-07-04T09:48:26.518Z,2.13
2023-07-04T09:49:45.915Z,1.93
2023-07-04T09:50:33.848Z,1.63
2023-07-04T09:51:20.517Z,1.87
2023-07-04T09:52:05.715Z,1.63
2023-07-04T09:53:11.334Z,1.63
2023-07-04T09:53:44.297Z,1.67
2023-07-04T09:54:19.951Z,1.90
2023-07-04T09:55:27.450Z,1.80
2023-07-04T09:56:02.735Z,1.83
2023-07-04T09:56:34.892Z,1.27
2023-07-04T09:57:25.960Z,1.57
2023-07-04T09:58:32.193Z,5.57
2023-07-04T09:59:30.195Z,2.83
2023-07-04T10:00:38.553Z,1.83
2023-07-04T10:01:16.040Z,1.77
2023-07-04T10:02:24.279Z,1.60
2023-07-04T10:03:06.054Z,2.00
2023-07-04T10:04:25.787Z,1.43
2023-07-04T10:04:58.094Z,1.27
2023-07-04T10:06:03.319Z,1.73
2023-07-04T10:06:38.041Z,1.83
2023-07-04T10:07:16.403Z,1.70
2023-07-04T10:08:06.865Z,1.57
2023-07-04T10:09:20.930Z,1.77
2023-07-04T10:10:00.983Z,1.57
2023-07-04T10:11:00.809Z,1.60
2023-07-04T10:11:41.307Z,2.10
2023-07-04T10:12:49.617Z,2.10
2023-07-04T10:13:37.888Z,2.30
2023-07-04T10:14:15.290Z,1.73
2023-07-04T10:14:56.472Z,1.83
2023-07-04T10:15:38.561Z,2.30
2023-07-04T10:16:24.577Z,2.03
2023-07-04T10:16:56.703Z,1.73
2023-07-04T10:18:05.948Z,1.80
2023-07-04T10:18:47.943Z,1.73
2023-07-04T10:19:24.237Z,1.67
2023-07-04T10:19:58.601Z,1.67
2023-07-04T10:20:37.621Z,1.67
2023-07-04T10:21:12.793Z,1.63
2023-07-04T10:21:49.601Z,1.83
2023-07-04T10:22:33.771Z,2.17
2023-07-04T10:23:08.460Z,1.80
2023-07-04T10:23:40.554Z,1.67
2023-07-04T10:24:23.481Z,1.50
2023-07-04T10:25:02.378Z,1.73
2023-07-04T10:25:53.003Z,1.83
2023-07-04T10:26:29.752Z,1.73
2023-07-04T10:27:12.796Z,1.87
2023-07-04T10:27:55.507Z,1.67
2023-07-04T10:28:29.246Z,1.90
2023-07-04T10:29:06.285Z,1.70
2023-07-04T10:29:55.513Z,1.67
2023-07-04T10:30:31.902Z,1.93
2023-07-04T10:31:15.899Z,1.53
2023-07-04T10:31:51.105Z,1.67
2023-07-04T10:32:34.173Z,1.70
2023-07-04T10:33:09.232Z,1.70
2023-07-04T10:33:51.689Z,1.83
2023-07-04T10:34:24.935Z,1.93
2023-07-04T10:35:00.818Z,1.73
2023-07-04T10:35:38.088Z,1.93
2023-07-04T10:39:18.203Z,2.43
2023-07-04T10:40:03.782Z,2.20
2023-07-04T10:40:37.831Z,2.03
2023-07-04T10:41:27.368Z,1.90
2023-07-04T10:42:56.620Z,2.10
2023-07-04T10:44:24.016Z,2.43
2023-07-04T10:45:33.437Z,2.70
2023-07-04T10:46:13.226Z,2.30
2023-07-04T10:47:27.237Z,2.17
2023-07-04T10:48:13.234Z,2.60
2023-07-04T10:48:56.335Z,2.57
2023-07-04T10:49:37.964Z,2.27
2023-07-04T10:50:22.893Z,2.20
2023-07-04T10:51:13.251Z,2.33
2023-07-04T10:51:54.493Z,2.77
2023-07-04T10:52:34.604Z,2.60
2023-07-04T10:53:08.588Z,2.17
2023-07-04T10:53:44.291Z,2.80
2023-07-04T10:54:17.458Z,2.43
2023-07-04T10:54:50.813Z,2.60
2023-07-04T10:55:37.905Z,2.63
2023-07-04T10:56:23.736Z,2.13
2023-07-04T10:56:58.833Z,2.70
2023-07-04T10:57:40.022Z,2.77
2023-07-04T10:58:54.129Z,2.40
2023-07-04T10:59:34.445Z,2.00
2023-07-04T11:00:42.294Z,1.53
2023-07-04T11:01:28.973Z,1.80
2023-07-04T11:02:00.930Z,1.60
2023-07-04T11:02:45.806Z,1.60
2023-07-04T11:04:05.759Z,2.07
2023-07-04T11:04:40.617Z,2.10
2023-07-04T11:05:20.371Z,2.07
2023-07-04T11:05:56.349Z,1.47
2023-07-04T11:06:31.744Z,1.47
2023-07-04T11:07:22.256Z,1.57
2023-07-04T11:07:54.399Z,1.63
2023-07-04T11:09:01.588Z,1.43
2023-07-04T11:09:39.863Z,2.03
2023-07-04T11:10:15.425Z,1.63
2023-07-04T11:11:33.899Z,1.50
2023-07-04T11:12:09.604Z,1.07
2023-07-04T11:12:44.244Z,1.40
2023-07-04T11:13:19.699Z,1.33
2023-07-04T11:13:56.356Z,1.37
2023-07-04T11:15:05.907Z,1.43
2023-07-04T11:16:13.739Z,1.40
2023-07-04T11:16:46.966Z,1.57
2023-07-04T11:17:19.453Z,1.53
2023-07-04T11:17:52.852Z,1.50
2023-07-04T11:18:31.806Z,1.57
2023-07-04T11:19:23.305Z,1.47
2023-07-04T11:21:07.093Z,1.53
2023-07-04T11:21:40.906Z,1.63
2023-07-04T11:22:16.800Z,1.60
2023-07-04T11:23:23.986Z,1.50
2023-07-04T11:24:44.464Z,1.37
2023-07-04T11:25:33.916Z,1.40
2023-07-04T11:26:09.682Z,1.40
2023-07-04T11:26:50.619Z,1.23
2023-07-04T11:27:25.604Z,2.93
2023-07-04T11:28:16.294Z,1.30
2023-07-04T11:30:07.529Z,1.27
2023-07-04T11:30:42.830Z,1.23
2023-07-04T11:31:49.932Z,1.00
2023-07-04T11:32:55.730Z,1.30
2023-07-04T11:33:39.994Z,1.27
2023-07-04T11:34:12.022Z,1.23
2023-07-04T11:34:55.442Z,1.37
2023-07-04T11:36:04.355Z,1.27
2023-07-04T11:36:50.475Z,1.30
2023-07-04T11:38:17.977Z,1.70
2023-07-04T11:38:59.482Z,1.87
2023-07-04T11:39:36.569Z,1.47
2023-07-04T11:40:27.775Z,1.47
2023-07-04T11:41:43.648Z,1.40
2023-07-04T11:42:23.837Z,1.33
2023-07-04T11:43:42.906Z,1.43
2023-07-04T11:44:29.640Z,1.20
2023-07-04T11:45:06.926Z,1.37
2023-07-04T11:46:30.281Z,1.27
2023-07-04T11:47:10.515Z,1.20
2023-07-04T11:48:19.482Z,1.43
2023-07-04T11:49:26.387Z,1.50
2023-07-04T11:50:07.212Z,1.20
2023-07-04T11:50:48.120Z,1.20
2023-07-04T11:52:20.112Z,1.50
2023-07-04T11:53:34.682Z,1.33
2023-07-04T11:54:08.382Z,1.40
2023-07-04T11:54:40.720Z,1.40
2023-07-04T11:55:46.375Z,1.30
2023-07-04T11:56:53.527Z,1.43
2023-07-04T11:57:28.908Z,1.53
2023-07-04T11:58:18.055Z,1.43
2023-07-04T11:59:12.616Z,1.03
2023-07-04T11:59:45.663Z,1.63
2023-07-04T12:00:39.435Z,1.43
2023-07-04T12:01:12.512Z,1.60
2023-07-04T12:02:31.825Z,1.40
2023-07-04T12:04:05.526Z,1.50
2023-07-04T12:04:37.575Z,1.20
2023-07-04T12:05:33.629Z,1.50
2023-07-04T12:06:06.033Z,1.53
2023-07-04T12:06:46.723Z,1.43
2023-07-04T12:07:45.764Z,1.33
2023-07-04T12:08:52.766Z,1.43
2023-07-04T12:09:30.215Z,1.37
2023-07-04T12:10:02.131Z,1.50
2023-07-04T12:10:34.628Z,1.53
2023-07-04T12:11:44.246Z,1.90
2023-07-04T12:12:26.102Z,1.90
2023-07-04T12:13:07.719Z,1.50
2023-07-04T12:13:43.393Z,1.50
2023-07-04T12:14:53.253Z,1.80
2023-07-04T12:15:30.217Z,1.57
2023-07-04T12:16:05.307Z,1.43
2023-07-04T12:16:38.108Z,2.03
2023-07-04T12:17:12.718Z,1.90
2023-07-04T12:17:47.380Z,1.63
2023-07-04T12:18:30.387Z,1.33
2023-07-04T12:19:05.829Z,1.30
2023-07-04T12:19:38.091Z,1.50
2023-07-04T12:20:45.004Z,1.57
2023-07-04T12:21:21.018Z,1.40
2023-07-04T12:21:53.720Z,1.63
2023-07-04T12:22:26.092Z,1.80
2023-07-04T12:22:59.935Z,1.93
2023-07-04T12:23:33.112Z,1.67
2023-07-04T12:24:06.902Z,1.50
2023-07-04T12:24:45.763Z,1.83
2023-07-04T12:25:41.781Z,1.53
2023-07-04T12:26:17.072Z,2.00
2023-07-04T12:26:58.096Z,1.47
2023-07-04T12:27:30.176Z,1.37
2023-07-04T12:28:04.903Z,1.70
2023-07-04T12:28:39.934Z,1.57
2023-07-04T12:30:23.841Z,1.43
2023-07-04T12:31:00.046Z,1.53
2023-07-04T12:31:44.975Z,1.70
2023-07-04T12:32:20.340Z,1.90
2023-07-04T12:32:53.627Z,2.07
2023-07-04T12:33:43.285Z,2.00
2023-07-04T12:35:32.093Z,1.97
2023-07-04T12:36:11.282Z,1.73
2023-07-04T12:36:46.388Z,1.67
2023-07-04T12:37:21.091Z,1.50
2023-07-04T12:37:56.762Z,1.70
2023-07-04T12:38:31.218Z,1.80
2023-07-04T12:39:44.065Z,1.60
2023-07-04T12:40:19.594Z,1.60
2023-07-04T12:41:28.580Z,1.37
2023-07-04T12:42:01.119Z,1.33
2023-07-04T12:42:33.802Z,1.43
2023-07-04T12:44:50.838Z,1.67
2023-07-04T12:45:25.805Z,1.80
2023-07-04T12:49:58.776Z,1.57
2023-07-04T12:51:13.641Z,1.53
2023-07-04T12:51:46.952Z,1.47
2023-07-04T12:52:53.076Z,1.67
2023-07-04T12:53:25.564Z,1.43
2023-07-04T12:54:02.281Z,1.47
2023-07-04T12:55:22.154Z,1.93
2023-07-04T12:55:57.193Z,2.07
2023-07-04T12:57:02.851Z,1.60
2023-07-04T12:57:35.699Z,1.87
2023-07-04T12:58:10.962Z,1.53
2023-07-04T12:58:47.736Z,1.43
2023-07-04T12:59:53.120Z,1.63
2023-07-04T13:00:31.296Z,1.63
2023-07-04T13:01:06.838Z,1.93
2023-07-04T13:01:40.167Z,1.73
2023-07-04T13:02:25.090Z,1.87
2023-07-04T13:03:10.102Z,1.73
2023-07-04T13:03:45.172Z,1.70
2023-07-04T13:04:23.791Z,1.63
2023-07-04T13:04:58.721Z,1.83
2023-07-04T13:05:43.759Z,1.67
2023-07-04T13:06:22.260Z,1.60
2023-07-04T13:06:56.118Z,1.63
2023-07-04T13:08:01.904Z,2.03
2023-07-04T13:08:47.848Z,1.90
2023-07-04T13:09:20.846Z,1.93
2023-07-04T13:09:57.290Z,1.80
2023-07-04T13:10:35.780Z,1.87
2023-07-04T13:11:40.569Z,1.70
2023-07-04T13:12:13.380Z,1.73
2023-07-04T13:12:45.592Z,1.93
2023-07-04T13:13:45.506Z,2.00
2023-07-04T13:14:25.069Z,1.90
2023-07-04T13:15:21.448Z,1.80
2023-07-04T13:16:31.198Z,2.07
2023-07-04T13:17:36.292Z,2.17
2023-07-04T13:18:45.547Z,2.00
2023-07-04T13:19:19.268Z,2.23
2023-07-04T13:19:51.517Z,2.10
2023-07-04T13:20:24.785Z,1.97
2023-07-04T13:20:59.598Z,1.97